createdAt,value
2023-01-20T03:07:40.647Z,1.11
2023-01-20T03:14:26.704Z,1.15
2023-01-20T03:47:40.337Z,1.22
2023-01-20T04:03:21.855Z,1.27
2023-01-20T04:53:32.613Z,0.94
2023-01-20T06:11:53.873Z,0.88
2023-01-20T06:23:25.788Z,0.65
2023-01-20T06:34:41.717Z,0.77
2023-01-20T06:37:08.908Z,0.78
2023-01-20T06:39:36.216Z,0.79
2023-01-20T06:42:13.535Z,0.81
2023-01-20T06:57:29.950Z,0.95
2023-01-20T06:59:58.822Z,0.79
2023-01-20T07:02:26.046Z,0.75
2023-01-20T07:04:53.377Z,0.74
2023-01-20T07:07:20.472Z,0.78
2023-01-20T07:09:47.988Z,0.74
2023-01-20T07:12:15.157Z,0.72
2023-01-20T07:14:42.288Z,0.76
2023-01-20T07:17:12.076Z,0.85
2023-01-20T07:19:39.205Z,0.83
2023-01-20T07:22:06.421Z,0.76
2023-01-20T07:24:33.615Z,0.69
2023-01-20T07:27:00.739Z,0.67
2023-01-20T07:29:27.866Z,0.75
2023-01-20T07:31:55.070Z,0.74
2023-01-20T07:34:22.206Z,0.73
2023-01-20T07:36:52.181Z,0.68
2023-01-20T07:40:09.456Z,0.56
2023-01-20T07:42:39.687Z,0.63
2023-01-20T07:45:07.393Z,0.60
2023-01-20T07:47:34.531Z,0.60
2023-01-20T07:50:01.683Z,0.62
2023-01-20T07:52:28.799Z,0.64
2023-01-20T07:54:55.918Z,0.54
2023-01-20T07:57:23.063Z,0.48
2023-01-20T07:59:50.255Z,0.37
2023-01-20T08:02:17.385Z,0.36
2023-01-20T08:04:44.569Z,0.44
2023-01-20T08:07:11.756Z,0.49
2023-01-20T08:09:41.016Z,0.49
2023-01-20T08:12:08.465Z,0.54
2023-01-20T08:14:37.740Z,0.56
2023-01-20T08:17:05.309Z,0.59
2023-01-20T08:19:32.457Z,0.61
2023-01-20T08:21:59.597Z,0.68
2023-01-20T08:24:26.785Z,0.59
2023-01-20T08:26:53.931Z,0.62
2023-01-20T08:29:21.134Z,0.61
2023-01-20T08:31:48.292Z,0.61
2023-01-20T08:34:16.105Z,0.66
2023-01-20T08:36:43.236Z,0.69
2023-01-20T08:39:14.398Z,0.69
2023-01-20T08:41:43.296Z,0.67
2023-01-20T08:44:11.254Z,0.71
2023-01-20T08:46:41.688Z,0.65
2023-01-20T08:49:16.884Z,0.55
2023-01-20T08:51:45.082Z,0.55
2023-01-20T08:54:12.461Z,0.57
2023-01-20T08:56:39.603Z,0.61
2023-01-20T08:59:07.126Z,0.66
2023-01-20T09:01:38.108Z,0.65
2023-01-20T09:04:07.088Z,0.61
2023-01-20T09:06:47.072Z,0.69
2023-01-20T09:09:15.767Z,0.65
2023-01-20T09:11:44.929Z,0.71
2023-01-20T09:14:12.255Z,0.80
2023-01-20T09:16:39.453Z,0.90
2023-01-20T09:19:06.666Z,0.92
2023-01-20T09:21:33.981Z,0.98
2023-01-20T09:24:01.166Z,0.96
2023-01-20T09:26:35.583Z,0.99
2023-01-20T09:29:11.184Z,1.07
2023-01-20T09:31:52.447Z,1.07
2023-01-20T09:34:24.437Z,1.09
2023-01-20T09:36:56.638Z,1.05
2023-01-20T09:39:43.140Z,1.00
2023-01-20T09:42:46.450Z,0.99
2023-01-20T09:45:26.897Z,1.06
2023-01-20T09:48:33.827Z,1.14
2023-01-20T09:51:22.404Z,1.05
2023-01-20T09:54:00.289Z,0.96
2023-01-20T09:56:28.220Z,0.94
2023-01-20T09:58:58.167Z,0.92
2023-01-20T10:01:30.482Z,0.98
2023-01-20T10:04:20.974Z,1.04
2023-01-20T10:06:57.212Z,1.05
2023-01-20T10:09:45.358Z,1.01
2023-01-20T10:12:21.662Z,0.88
2023-01-20T10:15:04.078Z,0.78
2023-01-20T10:17:36.962Z,0.71
2023-01-20T10:20:15.784Z,0.74
2023-01-20T10:22:49.981Z,0.82
2023-01-20T10:25:21.544Z,0.92
2023-01-20T10:28:11.757Z,1.01
2023-01-20T10:31:04.201Z,1.15
2023-01-20T10:33:37.353Z,1.25
2023-01-20T10:36:05.434Z,1.10
2023-01-20T10:38:40.950Z,1.04
2023-01-20T10:41:16.686Z,0.91
2023-01-20T10:43:45.100Z,0.88
2023-01-20T10:46:27.112Z,0.97
2023-01-20T10:49:21.406Z,1.00
2023-01-20T10:52:14.548Z,0.95
2023-01-20T10:55:04.960Z,1.10
2023-01-20T10:57:32.713Z,1.14
2023-01-20T11:00:03.197Z,1.07
2023-01-20T11:02:35.330Z,1.07
2023-01-20T11:05:09.720Z,1.12
2023-01-20T11:07:36.863Z,1.21
2023-01-20T11:10:19.072Z,1.25
2023-01-20T11:12:49.202Z,1.33
2023-01-20T11:15:25.565Z,1.42
2023-01-20T11:18:29.497Z,1.53
2023-01-20T11:21:23.613Z,1.52
2023-01-20T11:23:52.420Z,1.55
2023-01-20T11:26:31.140Z,1.55
2023-01-20T11:29:01.243Z,1.55
2023-01-20T11:31:50.195Z,1.40
2023-01-20T11:34:29.126Z,1.43
2023-01-20T11:37:05.040Z,1.44
2023-01-20T11:39:34.822Z,1.44
2023-01-20T11:42:24.789Z,1.45
2023-01-20T11:44:56.018Z,1.42
2023-01-20T11:47:31.536Z,1.48
2023-01-20T11:50:04.348Z,1.52
2023-01-20T11:52:39.581Z,1.57
2023-01-20T11:55:12.494Z,1.46
2023-01-20T11:57:44.609Z,1.32
2023-01-20T12:00:20.927Z,1.31
2023-01-20T12:03:12.744Z,1.31
2023-01-20T12:05:45.697Z,1.26
2023-01-20T12:08:25.066Z,1.28
2023-01-20T12:10:52.217Z,1.36
2023-01-20T12:13:19.277Z,1.39
2023-01-20T12:15:54.658Z,1.40
2023-01-20T12:19:01.217Z,1.45
2023-01-20T12:21:36.376Z,1.50
2023-01-20T12:24:03.499Z,1.54
2023-01-20T12:26:34.579Z,1.56
2023-01-20T12:29:13.815Z,1.64
2023-01-20T12:31:41.041Z,1.68
2023-01-20T12:34:21.253Z,1.60
2023-01-20T12:37:03.581Z,1.54
2023-01-20T12:39:51.784Z,1.54
2023-01-20T12:42:30.722Z,1.56
2023-01-20T12:45:22.211Z,1.54
2023-01-20T12:48:01.176Z,1.54
2023-01-20T12:50:44.487Z,1.55
2023-01-20T12:53:20.514Z,1.54
2023-01-20T12:55:56.887Z,1.57
2023-01-20T12:58:48.521Z,1.65
2023-01-20T13:01:43.071Z,1.74
2023-01-20T13:04:42.555Z,1.77
2023-01-20T13:07:39.961Z,1.91
2023-01-20T13:10:25.292Z,2.01
2023-01-20T13:13:56.911Z,2.11
2023-01-20T13:16:54.879Z,2.24
2023-01-20T13:19:33.819Z,2.27
2023-01-20T13:22:21.312Z,2.24
2023-01-20T13:24:53.292Z,2.26
2023-01-20T13:27:27.928Z,2.24
2023-01-20T13:29:57.405Z,2.22
2023-01-20T13:32:31.396Z,2.24
2023-01-20T13:35:00.135Z,2.27
2023-01-20T13:41:50.410Z,2.36
2023-01-20T13:44:36.534Z,2.42
2023-01-20T13:51:22.148Z,2.32
2023-01-20T13:58:21.923Z,2.36
2023-01-20T14:06:09.709Z,2.41
2023-01-20T14:09:19.694Z,2.40
2023-01-20T14:13:04.672Z,2.45
2023-01-20T14:16:24.552Z,2.39
2023-01-20T14:23:54.046Z,2.39
2023-01-20T14:35:35.614Z,2.49
2023-01-20T14:50:53.954Z,2.28
2023-01-20T15:40:40.133Z,2.20
2023-01-20T15:47:51.027Z,2.22
2023-01-20T16:07:35.165Z,1.82
2023-01-20T16:23:30.090Z,1.95
2023-01-20T16:43:04.041Z,1.74
2023-01-20T16:54:15.177Z,1.80
2023-01-20T17:09:40.176Z,1.81
2023-01-20T18:01:32.702Z,1.52
2023-01-20T18:12:50.144Z,1.56
2023-01-20T18:23:50.085Z,1.54
2023-01-20T18:26:19.025Z,1.50
2023-01-20T18:28:48.963Z,1.48
2023-01-20T18:31:19.960Z,1.53
2023-01-20T18:33:52.903Z,1.60
2023-01-20T18:36:28.581Z,1.66
2023-01-20T18:39:21.473Z,1.69
2023-01-20T18:59:23.445Z,1.37
2023-01-20T19:02:19.907Z,1.21
2023-01-20T19:04:46.951Z,1.17
2023-01-20T20:01:22.626Z,1.05
2023-01-20T20:21:23.780Z,0.93
2023-01-20T20:23:52.527Z,0.95
2023-01-20T20:44:01.863Z,0.85
2023-01-20T20:46:29.733Z,0.82
2023-01-20T20:57:47.313Z,0.61
2023-01-20T21:00:28.059Z,0.67
2023-01-20T21:07:39.248Z,0.64
2023-01-20T21:14:25.586Z,0.75
2023-01-20T21:16:52.687Z,0.75
2023-01-20T21:19:19.900Z,0.72
2023-01-20T21:26:13.990Z,0.58
2023-01-20T21:32:59.553Z,0.58
2023-01-20T21:35:26.708Z,0.56
2023-01-20T21:37:53.894Z,0.61
2023-01-20T21:40:21.087Z,0.64
2023-01-20T21:42:49.812Z,0.62
2023-01-20T21:45:16.969Z,0.61
2023-01-20T21:47:44.225Z,0.65
2023-01-20T21:54:35.427Z,0.61
2023-01-20T21:57:02.938Z,0.65
2023-01-20T23:48:39.451Z,-0.07
